sensor_id;sensor_type;location;lat;lon;timestamp;pressure;altitude;pressure_sealevel;temperature;humidity
53300;BME280;39187;48.476;8.310;2022-09-09T00:06:23;91078.59;;;14.90;75.00
53300;BME280;39187;48.476;8.310;2022-09-09T00:09:13;91060.41;;;14.85;75.29
53300;BME280;39187;48.476;8.310;2022-09-09T00:12:02;91061.63;;;14.93;74.92
53300;BME280;39187;48.476;8.310;2022-09-09T00:17:12;91063.09;;;14.85;75.60
53300;BME280;39187;48.476;8.310;2022-09-09T00:19:56;91060.72;;;14.87;75.24
53300;BME280;39187;48.476;8.310;2022-09-09T00:22:28;91062.66;;;14.77;75.71
53300;BME280;39187;48.476;8.310;2022-09-09T00:25:19;91064.31;;;14.84;75.38
53300;BME280;39187;48.476;8.310;2022-09-09T00:27:50;91064.53;;;14.59;76.81
53300;BME280;39187;48.476;8.310;2022-09-09T00:30:22;91056.50;;;14.59;77.08
53300;BME280;39187;48.476;8.310;2022-09-09T00:33:00;91063.50;;;14.65;76.66
53300;BME280;39187;48.476;8.310;2022-09-09T00:35:42;91056.94;;;14.66;76.74
53300;BME280;39187;48.476;8.310;2022-09-09T00:38:19;91058.00;;;14.69;76.38
53300;BME280;39187;48.476;8.310;2022-09-09T00:43:37;91055.63;;;14.71;76.54
53300;BME280;39187;48.476;8.310;2022-09-09T00:46:29;91055.69;;;14.49;77.74
53300;BME280;39187;48.476;8.310;2022-09-09T00:52:08;91061.94;;;14.46;78.27
53300;BME280;39187;48.476;8.310;2022-09-09T00:57:29;91081.31;;;14.28;80.05
53300;BME280;39187;48.476;8.310;2022-09-09T00:59:59;91067.81;;;14.32;80.21
53300;BME280;39187;48.476;8.310;2022-09-09T01:05:05;91075.09;;;14.31;80.98
53300;BME280;39187;48.476;8.310;2022-09-09T01:07:32;91064.16;;;14.17;81.39
53300;BME280;39187;48.476;8.310;2022-09-09T01:09:59;91063.78;;;14.27;81.16
53300;BME280;39187;48.476;8.310;2022-09-09T01:12:33;91069.69;;;14.22;81.95
53300;BME280;39187;48.476;8.310;2022-09-09T01:15:17;91058.78;;;14.17;82.12
53300;BME280;39187;48.476;8.310;2022-09-09T01:18:00;91061.22;;;14.24;81.89
53300;BME280;39187;48.476;8.310;2022-09-09T01:26:30;91059.53;;;13.86;84.29
53300;BME280;39187;48.476;8.310;2022-09-09T01:28:57;91060.78;;;13.94;83.81
53300;BME280;39187;48.476;8.310;2022-09-09T01:31:28;91056.16;;;13.95;83.80
53300;BME280;39187;48.476;8.310;2022-09-09T01:33:55;91061.63;;;13.91;83.76
53300;BME280;39187;48.476;8.310;2022-09-09T01:38:52;91051.50;;;13.86;84.10
53300;BME280;39187;48.476;8.310;2022-09-09T01:41:18;91050.63;;;13.68;85.38
53300;BME280;39187;48.476;8.310;2022-09-09T01:43:44;91053.00;;;13.65;85.83
53300;BME280;39187;48.476;8.310;2022-09-09T01:46:11;91060.03;;;13.72;85.65
53300;BME280;39187;48.476;8.310;2022-09-09T01:48:37;91051.81;;;13.67;85.57
53300;BME280;39187;48.476;8.310;2022-09-09T01:51:04;91040.63;;;13.59;85.71
53300;BME280;39187;48.476;8.310;2022-09-09T01:53:29;91037.09;;;13.62;85.38
53300;BME280;39187;48.476;8.310;2022-09-09T01:56:07;91035.69;;;13.57;84.68
53300;BME280;39187;48.476;8.310;2022-09-09T01:59:01;91044.34;;;13.61;84.25
53300;BME280;39187;48.476;8.310;2022-09-09T02:01:35;91055.47;;;13.60;84.00
53300;BME280;39187;48.476;8.310;2022-09-09T02:04:08;91047.69;;;13.53;83.77
53300;BME280;39187;48.476;8.310;2022-09-09T02:06:40;91052.63;;;13.54;82.77
53300;BME280;39187;48.476;8.310;2022-09-09T02:09:07;91059.13;;;13.32;83.47
53300;BME280;39187;48.476;8.310;2022-09-09T02:11:35;91055.91;;;13.58;82.23
53300;BME280;39187;48.476;8.310;2022-09-09T02:14:08;91064.00;;;13.68;81.64
53300;BME280;39187;48.476;8.310;2022-09-09T02:16:40;91054.06;;;13.68;81.35
53300;BME280;39187;48.476;8.310;2022-09-09T02:19:14;91045.59;;;13.70;81.17
53300;BME280;39187;48.476;8.310;2022-09-09T02:21:46;91047.03;;;13.61;81.78
53300;BME280;39187;48.476;8.310;2022-09-09T02:24:14;91043.88;;;13.19;83.93
53300;BME280;39187;48.476;8.310;2022-09-09T02:26:42;91043.72;;;13.36;83.70
53300;BME280;39187;48.476;8.310;2022-09-09T02:29:14;91039.34;;;13.51;82.82
53300;BME280;39187;48.476;8.310;2022-09-09T02:31:43;91034.25;;;13.22;84.56
53300;BME280;39187;48.476;8.310;2022-09-09T02:34:11;91045.22;;;12.90;86.92
53300;BME280;39187;48.476;8.310;2022-09-09T02:36:40;91047.47;;;12.91;87.30
53300;BME280;39187;48.476;8.310;2022-09-09T02:39:10;91040.81;;;12.96;87.15
53300;BME280;39187;48.476;8.310;2022-09-09T02:41:38;91054.03;;;13.12;86.15
53300;BME280;39187;48.476;8.310;2022-09-09T02:44:12;91049.50;;;12.87;87.33
53300;BME280;39187;48.476;8.310;2022-09-09T02:54:34;91031.13;;;12.89;87.12
53300;BME280;39187;48.476;8.310;2022-09-09T02:57:23;91037.75;;;12.84;87.45
53300;BME280;39187;48.476;8.310;2022-09-09T02:59:51;91029.06;;;12.93;87.14
53300;BME280;39187;48.476;8.310;2022-09-09T03:02:20;91032.75;;;12.74;88.19
53300;BME280;39187;48.476;8.310;2022-09-09T03:04:45;91033.28;;;12.69;88.15
53300;BME280;39187;48.476;8.310;2022-09-09T03:07:16;91032.28;;;12.88;87.08
53300;BME280;39187;48.476;8.310;2022-09-09T03:09:42;91034.59;;;12.64;88.64
53300;BME280;39187;48.476;8.310;2022-09-09T03:12:08;91030.41;;;12.76;87.93
53300;BME280;39187;48.476;8.310;2022-09-09T03:14:37;91029.41;;;12.82;87.74
53300;BME280;39187;48.476;8.310;2022-09-09T03:17:04;91033.63;;;12.58;89.09
53300;BME280;39187;48.476;8.310;2022-09-09T03:19:30;91028.16;;;12.62;89.48
53300;BME280;39187;48.476;8.310;2022-09-09T03:21:55;91035.31;;;12.77;88.32
53300;BME280;39187;48.476;8.310;2022-09-09T03:24:21;91037.38;;;12.61;89.42
53300;BME280;39187;48.476;8.310;2022-09-09T03:26:48;91040.94;;;12.92;87.94
53300;BME280;39187;48.476;8.310;2022-09-09T03:29:13;91032.84;;;12.83;88.64
53300;BME280;39187;48.476;8.310;2022-09-09T03:31:40;91034.13;;;12.91;88.04
53300;BME280;39187;48.476;8.310;2022-09-09T03:34:06;91025.13;;;12.98;87.60
53300;BME280;39187;48.476;8.310;2022-09-09T03:36:32;91031.50;;;13.00;87.51
53300;BME280;39187;48.476;8.310;2022-09-09T03:38:58;91025.34;;;12.91;88.81
53300;BME280;39187;48.476;8.310;2022-09-09T03:41:24;91030.78;;;12.87;89.27
53300;BME280;39187;48.476;8.310;2022-09-09T03:43:51;91025.44;;;12.53;91.55
53300;BME280;39187;48.476;8.310;2022-09-09T03:46:18;91029.91;;;12.43;92.12
53300;BME280;39187;48.476;8.310;2022-09-09T03:48:44;91027.09;;;12.72;90.80
53300;BME280;39187;48.476;8.310;2022-09-09T03:51:10;91028.41;;;12.67;90.99
53300;BME280;39187;48.476;8.310;2022-09-09T03:53:35;91027.66;;;12.67;91.56
53300;BME280;39187;48.476;8.310;2022-09-09T03:56:03;91023.38;;;12.57;92.89
53300;BME280;39187;48.476;8.310;2022-09-09T03:58:30;91021.59;;;12.41;94.03
53300;BME280;39187;48.476;8.310;2022-09-09T04:00:58;91022.66;;;12.43;94.35
53300;BME280;39187;48.476;8.310;2022-09-09T04:03:25;91025.09;;;12.38;94.52
53300;BME280;39187;48.476;8.310;2022-09-09T04:05:52;91016.38;;;12.25;95.78
53300;BME280;39187;48.476;8.310;2022-09-09T04:08:18;91023.06;;;12.42;94.38
53300;BME280;39187;48.476;8.310;2022-09-09T04:10:46;91025.66;;;12.33;95.76
53300;BME280;39187;48.476;8.310;2022-09-09T04:13:12;91023.94;;;12.39;95.62
53300;BME280;39187;48.476;8.310;2022-09-09T04:15:39;91017.97;;;12.35;95.50
53300;BME280;39187;48.476;8.310;2022-09-09T04:18:05;91023.59;;;12.50;95.21
53300;BME280;39187;48.476;8.310;2022-09-09T04:20:31;91024.03;;;12.35;96.49
53300;BME280;39187;48.476;8.310;2022-09-09T04:22:57;91029.28;;;12.26;97.36
53300;BME280;39187;48.476;8.310;2022-09-09T04:25:23;91029.63;;;12.28;97.84
53300;BME280;39187;48.476;8.310;2022-09-09T04:27:56;91020.84;;;12.28;98.33
53300;BME280;39187;48.476;8.310;2022-09-09T04:30:22;91015.59;;;12.37;97.54
53300;BME280;39187;48.476;8.310;2022-09-09T04:32:48;91012.72;;;12.44;97.36
53300;BME280;39187;48.476;8.310;2022-09-09T04:35:13;91014.34;;;12.29;97.98
53300;BME280;39187;48.476;8.310;2022-09-09T04:37:39;91023.31;;;12.10;100.00
53300;BME280;39187;48.476;8.310;2022-09-09T04:40:05;91020.31;;;12.33;98.91
53300;BME280;39187;48.476;8.310;2022-09-09T04:42:35;91024.91;;;12.20;99.76
53300;BME280;39187;48.476;8.310;2022-09-09T04:45:01;91039.53;;;12.28;99.11
53300;BME280;39187;48.476;8.310;2022-09-09T04:47:27;91033.66;;;12.08;100.00
53300;BME280;39187;48.476;8.310;2022-09-09T04:49:53;91038.31;;;11.91;100.00
53300;BME280;39187;48.476;8.310;2022-09-09T04:52:20;91040.03;;;11.85;100.00
53300;BME280;39187;48.476;8.310;2022-09-09T04:54:46;91042.94;;;11.90;100.00
53300;BME280;39187;48.476;8.310;2022-09-09T04:57:12;91049.31;;;11.93;100.00
53300;BME280;39187;48.476;8.310;2022-09-09T04:59:37;91046.22;;;11.94;100.00
53300;BME280;39187;48.476;8.310;2022-09-09T05:02:04;91051.69;;;12.16;100.00
53300;BME280;39187;48.476;8.310;2022-09-09T05:04:30;91044.13;;;12.02;100.00
53300;BME280;39187;48.476;8.310;2022-09-09T05:06:56;91055.53;;;12.15;100.00
53300;BME280;39187;48.476;8.310;2022-09-09T05:09:21;91041.53;;;12.49;99.93
53300;BME280;39187;48.476;8.310;2022-09-09T05:11:47;91050.22;;;12.28;100.00
53300;BME280;39187;48.476;8.310;2022-09-09T05:14:13;91054.88;;;12.36;100.00
53300;BME280;39187;48.476;8.310;2022-09-09T05:16:40;91039.75;;;12.33;100.00
53300;BME280;39187;48.476;8.310;2022-09-09T05:19:05;91049.03;;;12.54;100.00
53300;BME280;39187;48.476;8.310;2022-09-09T05:21:33;91050.94;;;12.54;100.00
53300;BME280;39187;48.476;8.310;2022-09-09T05:23:59;91053.28;;;12.52;100.00
53300;BME280;39187;48.476;8.310;2022-09-09T05:26:26;91048.75;;;12.74;99.85
53300;BME280;39187;48.476;8.310;2022-09-09T05:28:52;91052.94;;;12.62;100.00
53300;BME280;39187;48.476;8.310;2022-09-09T05:31:18;91064.41;;;12.37;100.00
53300;BME280;39187;48.476;8.310;2022-09-09T05:33:45;91061.63;;;12.28;100.00
53300;BME280;39187;48.476;8.310;2022-09-09T05:36:13;91063.84;;;12.42;100.00
53300;BME280;39187;48.476;8.310;2022-09-09T05:38:40;91056.78;;;12.61;100.00
53300;BME280;39187;48.476;8.310;2022-09-09T05:41:06;91050.56;;;12.90;100.00
53300;BME280;39187;48.476;8.310;2022-09-09T05:43:33;91057.22;;;12.72;100.00
53300;BME280;39187;48.476;8.310;2022-09-09T05:48:35;91066.94;;;12.79;100.00
53300;BME280;39187;48.476;8.310;2022-09-09T05:51:01;91056.25;;;12.79;100.00
53300;BME280;39187;48.476;8.310;2022-09-09T05:53:28;91059.94;;;12.94;100.00
53300;BME280;39187;48.476;8.310;2022-09-09T05:56:01;91063.75;;;12.59;100.00
53300;BME280;39187;48.476;8.310;2022-09-09T05:58:32;91053.69;;;12.75;100.00
53300;BME280;39187;48.476;8.310;2022-09-09T06:01:08;91060.19;;;12.74;100.00
53300;BME280;39187;48.476;8.310;2022-09-09T06:03:36;91064.13;;;12.82;100.00
53300;BME280;39187;48.476;8.310;2022-09-09T06:06:07;91064.47;;;12.84;100.00
53300;BME280;39187;48.476;8.310;2022-09-09T06:08:34;91070.44;;;12.89;100.00
53300;BME280;39187;48.476;8.310;2022-09-09T06:11:26;91074.59;;;12.90;100.00
53300;BME280;39187;48.476;8.310;2022-09-09T06:13:52;91066.59;;;12.90;100.00
53300;BME280;39187;48.476;8.310;2022-09-09T06:16:24;91061.66;;;12.88;100.00
53300;BME280;39187;48.476;8.310;2022-09-09T06:18:50;91072.09;;;13.08;100.00
53300;BME280;39187;48.476;8.310;2022-09-09T06:21:23;91063.41;;;12.82;100.00
53300;BME280;39187;48.476;8.310;2022-09-09T06:23:50;91066.00;;;13.07;100.00
53300;BME280;39187;48.476;8.310;2022-09-09T06:26:21;91063.13;;;13.14;100.00
53300;BME280;39187;48.476;8.310;2022-09-09T06:28:49;91062.53;;;12.98;100.00
53300;BME280;39187;48.476;8.310;2022-09-09T06:31:17;91073.22;;;12.85;100.00
53300;BME280;39187;48.476;8.310;2022-09-09T06:33:47;91065.38;;;13.03;100.00
53300;BME280;39187;48.476;8.310;2022-09-09T06:36:18;91061.22;;;13.02;100.00
53300;BME280;39187;48.476;8.310;2022-09-09T06:38:45;91067.34;;;12.90;100.00
53300;BME280;39187;48.476;8.310;2022-09-09T06:41:12;91061.09;;;13.06;100.00
53300;BME280;39187;48.476;8.310;2022-09-09T06:43:38;91068.00;;;12.81;100.00
53300;BME280;39187;48.476;8.310;2022-09-09T06:46:07;91067.47;;;12.61;100.00
53300;BME280;39187;48.476;8.310;2022-09-09T06:48:34;91065.00;;;12.79;100.00
53300;BME280;39187;48.476;8.310;2022-09-09T06:51:08;91063.78;;;12.93;100.00
53300;BME280;39187;48.476;8.310;2022-09-09T06:53:35;91066.00;;;13.07;100.00
53300;BME280;39187;48.476;8.310;2022-09-09T06:56:03;91066.75;;;13.20;100.00
53300;BME280;39187;48.476;8.310;2022-09-09T06:58:42;91068.72;;;12.95;100.00
53300;BME280;39187;48.476;8.310;2022-09-09T07:01:12;91080.53;;;13.19;100.00
53300;BME280;39187;48.476;8.310;2022-09-09T07:03:39;91081.41;;;13.03;100.00
53300;BME280;39187;48.476;8.310;2022-09-09T07:06:06;91075.19;;;13.06;100.00
53300;BME280;39187;48.476;8.310;2022-09-09T07:08:39;91071.91;;;13.02;100.00
53300;BME280;39187;48.476;8.310;2022-09-09T07:11:06;91072.22;;;13.17;100.00
53300;BME280;39187;48.476;8.310;2022-09-09T07:13:32;91073.25;;;13.54;100.00
53300;BME280;39187;48.476;8.310;2022-09-09T07:16:08;91074.72;;;14.42;97.30
53300;BME280;39187;48.476;8.310;2022-09-09T07:18:34;91075.25;;;14.68;93.80
53300;BME280;39187;48.476;8.310;2022-09-09T07:21:01;91076.75;;;14.69;93.36
53300;BME280;39187;48.476;8.310;2022-09-09T07:23:27;91082.50;;;14.27;94.61
53300;BME280;39187;48.476;8.310;2022-09-09T07:25:53;91080.28;;;14.57;93.75
53300;BME280;39187;48.476;8.310;2022-09-09T07:28:20;91086.06;;;14.24;95.43
53300;BME280;39187;48.476;8.310;2022-09-09T07:31:00;91091.31;;;14.37;94.10
53300;BME280;39187;48.476;8.310;2022-09-09T07:33:29;91075.34;;;14.24;95.19
53300;BME280;39187;48.476;8.310;2022-09-09T07:36:13;91091.47;;;14.12;96.52
53300;BME280;39187;48.476;8.310;2022-09-09T07:38:43;91085.69;;;14.13;96.65
53300;BME280;39187;48.476;8.310;2022-09-09T07:41:13;91082.78;;;14.20;96.58
53300;BME280;39187;48.476;8.310;2022-09-09T07:43:39;91088.41;;;14.22;95.97
53300;BME280;39187;48.476;8.310;2022-09-09T07:46:06;91099.25;;;13.97;98.62
53300;BME280;39187;48.476;8.310;2022-09-09T07:48:32;91104.47;;;14.22;96.63
53300;BME280;39187;48.476;8.310;2022-09-09T07:51:09;91100.22;;;13.81;100.00
53300;BME280;39187;48.476;8.310;2022-09-09T07:53:40;91095.78;;;13.87;100.00
53300;BME280;39187;48.476;8.310;2022-09-09T07:56:08;91096.03;;;13.24;100.00
53300;BME280;39187;48.476;8.310;2022-09-09T07:58:35;91099.06;;;13.48;100.00
53300;BME280;39187;48.476;8.310;2022-09-09T08:01:09;91100.66;;;13.80;100.00
53300;BME280;39187;48.476;8.310;2022-09-09T08:03:35;91100.34;;;13.99;100.00
53300;BME280;39187;48.476;8.310;2022-09-09T08:06:06;91099.78;;;15.06;100.00
53300;BME280;39187;48.476;8.310;2022-09-09T08:08:33;91101.94;;;15.48;97.31
53300;BME280;39187;48.476;8.310;2022-09-09T08:11:08;91094.66;;;15.85;93.47
53300;BME280;39187;48.476;8.310;2022-09-09T08:13:37;91092.13;;;15.99;89.02
53300;BME280;39187;48.476;8.310;2022-09-09T08:16:13;91103.78;;;15.78;87.97
53300;BME280;39187;48.476;8.310;2022-09-09T08:18:39;91097.63;;;16.14;87.01
53300;BME280;39187;48.476;8.310;2022-09-09T08:21:19;91098.81;;;16.82;85.46
53300;BME280;39187;48.476;8.310;2022-09-09T08:23:46;91095.34;;;17.72;81.56
53300;BME280;39187;48.476;8.310;2022-09-09T08:26:35;91102.13;;;18.50;77.59
53300;BME280;39187;48.476;8.310;2022-09-09T08:29:03;91102.22;;;18.85;74.42
53300;BME280;39187;48.476;8.310;2022-09-09T08:31:34;91104.94;;;19.19;70.82
53300;BME280;39187;48.476;8.310;2022-09-09T08:34:01;91100.28;;;19.20;67.46
53300;BME280;39187;48.476;8.310;2022-09-09T08:36:32;91107.59;;;17.73;68.45
53300;BME280;39187;48.476;8.310;2022-09-09T08:38:59;91102.91;;;17.49;71.09
53300;BME280;39187;48.476;8.310;2022-09-09T08:50:08;91108.25;;;18.35;67.85
53300;BME280;39187;48.476;8.310;2022-09-09T08:55:32;91112.16;;;17.81;67.20
53300;BME280;39187;48.476;8.310;2022-09-09T08:58:08;91109.81;;;17.27;70.28
53300;BME280;39187;48.476;8.310;2022-09-09T09:00:45;91105.13;;;17.84;68.14
53300;BME280;39187;48.476;8.310;2022-09-09T09:03:23;91096.59;;;17.85;66.10
53300;BME280;39187;48.476;8.310;2022-09-09T09:09:02;91095.91;;;19.22;60.66
53300;BME280;39187;48.476;8.310;2022-09-09T09:11:50;91085.03;;;19.92;59.30
53300;BME280;39187;48.476;8.310;2022-09-09T09:16:56;91088.97;;;20.17;57.93
53300;BME280;39187;48.476;8.310;2022-09-09T09:19:23;91084.41;;;19.42;56.50
53300;BME280;39187;48.476;8.310;2022-09-09T09:24:23;91085.34;;;19.04;57.48
53300;BME280;39187;48.476;8.310;2022-09-09T09:26:52;91088.66;;;19.14;56.09
53300;BME280;39187;48.476;8.310;2022-09-09T09:29:19;91074.19;;;17.94;58.18
53300;BME280;39187;48.476;8.310;2022-09-09T09:31:59;91080.75;;;18.46;58.97
53300;BME280;39187;48.476;8.310;2022-09-09T09:34:27;91087.81;;;18.29;59.61
53300;BME280;39187;48.476;8.310;2022-09-09T09:36:56;91084.16;;;17.40;59.85
53300;BME280;39187;48.476;8.310;2022-09-09T09:39:25;91089.63;;;17.22;63.50
53300;BME280;39187;48.476;8.310;2022-09-09T09:41:51;91090.22;;;17.50;64.91
53300;BME280;39187;48.476;8.310;2022-09-09T09:44:28;91091.53;;;17.54;65.72
53300;BME280;39187;48.476;8.310;2022-09-09T09:47:16;91085.50;;;17.83;65.45
53300;BME280;39187;48.476;8.310;2022-09-09T09:49:52;91090.09;;;17.68;64.22
53300;BME280;39187;48.476;8.310;2022-09-09T09:52:23;91098.41;;;17.32;66.03
53300;BME280;39187;48.476;8.310;2022-09-09T09:54:50;91107.97;;;17.33;67.03
53300;BME280;39187;48.476;8.310;2022-09-09T09:57:17;91097.63;;;17.64;66.81
53300;BME280;39187;48.476;8.310;2022-09-09T09:59:44;91116.78;;;17.33;65.47
53300;BME280;39187;48.476;8.310;2022-09-09T10:02:22;91120.44;;;16.88;68.49
53300;BME280;39187;48.476;8.310;2022-09-09T10:05:08;91128.72;;;17.08;67.97
53300;BME280;39187;48.476;8.310;2022-09-09T10:07:37;91133.97;;;16.42;73.41
53300;BME280;39187;48.476;8.310;2022-09-09T10:10:05;91139.22;;;16.37;76.18
53300;BME280;39187;48.476;8.310;2022-09-09T10:12:40;91144.16;;;16.02;80.17
53300;BME280;39187;48.476;8.310;2022-09-09T10:20:54;91171.34;;;14.13;92.95
53300;BME280;39187;48.476;8.310;2022-09-09T10:23:52;91160.38;;;13.98;91.57
53300;BME280;39187;48.476;8.310;2022-09-09T10:26:35;91160.81;;;13.97;90.74
53300;BME280;39187;48.476;8.310;2022-09-09T10:29:16;91157.53;;;13.24;95.47
53300;BME280;39187;48.476;8.310;2022-09-09T10:38:17;91134.84;;;13.85;94.66
53300;BME280;39187;48.476;8.310;2022-09-09T10:57:37;91112.19;;;15.31;90.06
53300;BME280;39187;48.476;8.310;2022-09-09T11:00:14;91109.22;;;15.38;90.67
53300;BME280;39187;48.476;8.310;2022-09-09T11:02:41;91111.31;;;15.43;89.78
53300;BME280;39187;48.476;8.310;2022-09-09T11:05:18;91113.75;;;15.69;88.90
53300;BME280;39187;48.476;8.310;2022-09-09T11:07:49;91116.19;;;15.08;93.67
53300;BME280;39187;48.476;8.310;2022-09-09T11:10:44;91118.69;;;15.12;91.05
53300;BME280;39187;48.476;8.310;2022-09-09T11:13:28;91114.72;;;15.16;90.56
53300;BME280;39187;48.476;8.310;2022-09-09T11:16:27;91108.78;;;14.81;93.08
53300;BME280;39187;48.476;8.310;2022-09-09T11:19:00;91111.72;;;15.14;94.17
53300;BME280;39187;48.476;8.310;2022-09-09T11:21:34;91109.16;;;15.11;94.58
53300;BME280;39187;48.476;8.310;2022-09-09T11:24:12;91110.19;;;15.04;93.20
53300;BME280;39187;48.476;8.310;2022-09-09T11:26:52;91115.13;;;15.06;94.20
53300;BME280;39187;48.476;8.310;2022-09-09T11:29:33;91108.31;;;15.32;93.39
53300;BME280;39187;48.476;8.310;2022-09-09T11:40:56;91110.44;;;15.46;87.28
53300;BME280;39187;48.476;8.310;2022-09-09T11:43:28;91116.19;;;15.08;91.00
53300;BME280;39187;48.476;8.310;2022-09-09T11:45:57;91107.16;;;15.42;90.38
53300;BME280;39187;48.476;8.310;2022-09-09T11:49:28;91107.34;;;14.99;90.85
53300;BME280;39187;48.476;8.310;2022-09-09T11:53:56;91118.53;;;14.35;87.11
53300;BME280;39187;48.476;8.310;2022-09-09T11:56:32;91118.34;;;14.30;86.93
53300;BME280;39187;48.476;8.310;2022-09-09T11:59:04;91117.13;;;14.43;86.56
53300;BME280;39187;48.476;8.310;2022-09-09T12:01:43;91120.28;;;14.51;85.67
53300;BME280;39187;48.476;8.310;2022-09-09T12:04:25;91118.69;;;14.63;82.25
53300;BME280;39187;48.476;8.310;2022-09-09T12:07:46;91114.03;;;14.54;81.02
53300;BME280;39187;48.476;8.310;2022-09-09T12:12:33;91128.41;;;14.38;79.06
53300;BME280;39187;48.476;8.310;2022-09-09T12:17:45;91126.47;;;14.70;80.22
53300;BME280;39187;48.476;8.310;2022-09-09T12:20:31;91123.03;;;14.17;82.12
53300;BME280;39187;48.476;8.310;2022-09-09T12:26:08;91125.66;;;14.60;83.13
53300;BME280;39187;48.476;8.310;2022-09-09T12:31:31;91123.22;;;14.22;85.49
53300;BME280;39187;48.476;8.310;2022-09-09T12:34:10;91119.84;;;14.53;85.13
53300;BME280;39187;48.476;8.310;2022-09-09T12:36:37;91107.63;;;14.52;84.75
53300;BME280;39187;48.476;8.310;2022-09-09T12:39:28;91098.06;;;14.41;83.06
53300;BME280;39187;48.476;8.310;2022-09-09T12:41:55;91111.81;;;14.31;82.78
53300;BME280;39187;48.476;8.310;2022-09-09T12:44:24;91111.81;;;14.31;84.97
53300;BME280;39187;48.476;8.310;2022-09-09T12:46:51;91102.03;;;14.59;85.16
53300;BME280;39187;48.476;8.310;2022-09-09T12:49:35;91104.13;;;14.64;83.09
53300;BME280;39187;48.476;8.310;2022-09-09T12:52:18;91101.47;;;14.42;83.63
53300;BME280;39187;48.476;8.310;2022-09-09T12:54:47;91097.31;;;14.72;83.71
53300;BME280;39187;48.476;8.310;2022-09-09T12:57:13;91088.00;;;14.55;84.50
53300;BME280;39187;48.476;8.310;2022-09-09T12:59:42;91087.94;;;14.76;82.46
53300;BME280;39187;48.476;8.310;2022-09-09T13:02:20;91082.72;;;14.73;81.58
53300;BME280;39187;48.476;8.310;2022-09-09T13:04:46;91085.22;;;14.67;81.51
53300;BME280;39187;48.476;8.310;2022-09-09T13:07:12;91079.69;;;14.62;80.98
53300;BME280;39187;48.476;8.310;2022-09-09T13:09:39;91078.69;;;14.68;81.08
53300;BME280;39187;48.476;8.310;2022-09-09T13:12:06;91080.56;;;14.99;78.54
53300;BME280;39187;48.476;8.310;2022-09-09T13:14:37;91077.44;;;15.00;78.19
53300;BME280;39187;48.476;8.310;2022-09-09T13:17:05;91081.97;;;14.72;76.65
53300;BME280;39187;48.476;8.310;2022-09-09T13:19:37;91080.84;;;15.01;74.21
53300;BME280;39187;48.476;8.310;2022-09-09T13:22:31;91071.22;;;15.31;74.48
53300;BME280;39187;48.476;8.310;2022-09-09T13:27:41;91090.91;;;15.28;74.49
53300;BME280;39187;48.476;8.310;2022-09-09T13:35:35;91080.75;;;15.32;74.02
53300;BME280;39187;48.476;8.310;2022-09-09T13:38:08;91074.78;;;15.09;71.44
53300;BME280;39187;48.476;8.310;2022-09-09T13:40:35;91075.84;;;15.30;71.43
53300;BME280;39187;48.476;8.310;2022-09-09T13:43:00;91077.78;;;15.30;71.48
53300;BME280;39187;48.476;8.310;2022-09-09T13:45:27;91077.94;;;15.26;72.07
53300;BME280;39187;48.476;8.310;2022-09-09T13:47:54;91072.88;;;15.46;71.26
53300;BME280;39187;48.476;8.310;2022-09-09T13:50:26;91059.31;;;15.22;73.03
53300;BME280;39187;48.476;8.310;2022-09-09T13:52:53;91067.50;;;15.28;73.31
53300;BME280;39187;48.476;8.310;2022-09-09T13:55:21;91068.41;;;15.34;72.59
53300;BME280;39187;48.476;8.310;2022-09-09T13:57:53;91072.00;;;15.40;72.31
53300;BME280;39187;48.476;8.310;2022-09-09T14:00:18;91071.22;;;15.31;73.87
53300;BME280;39187;48.476;8.310;2022-09-09T14:02:44;91071.59;;;14.83;74.07
53300;BME280;39187;48.476;8.310;2022-09-09T14:05:10;91063.78;;;15.25;72.17
53300;BME280;39187;48.476;8.310;2022-09-09T14:07:39;91070.44;;;15.03;73.22
53300;BME280;39187;48.476;8.310;2022-09-09T14:10:06;91067.16;;;14.90;74.41
53300;BME280;39187;48.476;8.310;2022-09-09T14:12:32;91067.75;;;14.94;73.32
53300;BME280;39187;48.476;8.310;2022-09-09T14:14:57;91075.22;;;15.08;70.42
53300;BME280;39187;48.476;8.310;2022-09-09T14:17:25;91057.94;;;15.18;69.83
53300;BME280;39187;48.476;8.310;2022-09-09T14:19:54;91061.78;;;14.90;69.23
53300;BME280;39187;48.476;8.310;2022-09-09T14:22:21;91075.03;;;14.84;68.89
53300;BME280;39187;48.476;8.310;2022-09-09T14:24:47;91066.63;;;14.64;69.99
53300;BME280;39187;48.476;8.310;2022-09-09T14:27:12;91070.09;;;14.82;70.40
53300;BME280;39187;48.476;8.310;2022-09-09T14:29:38;91073.66;;;14.79;70.19
53300;BME280;39187;48.476;8.310;2022-09-09T14:32:04;91076.72;;;14.60;70.79
53300;BME280;39187;48.476;8.310;2022-09-09T14:34:29;91071.19;;;14.54;70.54
53300;BME280;39187;48.476;8.310;2022-09-09T14:36:58;91077.13;;;14.89;70.16
53300;BME280;39187;48.476;8.310;2022-09-09T14:39:23;91072.97;;;14.97;69.75
53300;BME280;39187;48.476;8.310;2022-09-09T14:41:49;91070.84;;;14.92;70.09
53300;BME280;39187;48.476;8.310;2022-09-09T14:44:14;91068.91;;;14.93;70.70
53300;BME280;39187;48.476;8.310;2022-09-09T14:46:41;91064.63;;;15.04;71.13
53300;BME280;39187;48.476;8.310;2022-09-09T14:49:08;91055.72;;;15.07;71.86
53300;BME280;39187;48.476;8.310;2022-09-09T14:51:35;91054.94;;;14.89;70.32
53300;BME280;39187;48.476;8.310;2022-09-09T14:54:01;91059.69;;;14.94;71.31
53300;BME280;39187;48.476;8.310;2022-09-09T14:56:30;91063.59;;;15.02;69.23
53300;BME280;39187;48.476;8.310;2022-09-09T14:58:58;91062.44;;;15.21;68.80
53300;BME280;39187;48.476;8.310;2022-09-09T15:01:26;91054.84;;;15.10;70.37
53300;BME280;39187;48.476;8.310;2022-09-09T15:03:54;91052.59;;;15.18;68.54
53300;BME280;39187;48.476;8.310;2022-09-09T15:06:21;91050.19;;;15.02;68.65
53300;BME280;39187;48.476;8.310;2022-09-09T15:08:50;91059.13;;;15.08;66.97
53300;BME280;39187;48.476;8.310;2022-09-09T15:11:16;91063.84;;;14.85;68.30
53300;BME280;39187;48.476;8.310;2022-09-09T15:13:43;91064.47;;;14.90;67.70